Latest Coastal Weather Observations for Hindmarsh Island

IDS60701

Issued at 3:25 am CDT Saturday 25 October 2014 (issued every 10 minutes, with the page automatically refreshed every 10 minutes)

About coastal observations | Map of coastal stations | Coastal observations for SA | Marine services | Other Formats
Station Details ID: 023894 Name: HINDMARSH ISLAND AWS Lat: -35.52 Lon: 138.82 Height: 11.0 m
Data from the previous 72 hours. | See also: Recent months at Hindmarsh Island
Date/Time
CDT
Temp

°C
Wind Pressure Rain
since 9am
mm
Weather Cloud Vis
km
Sea
Height
m
Swell
Dir
 
Speed
knots
Gust
knots
hPa Trend Height
m
Period
s
Dir
25/03:00am 15.7 ESE 6 10 1015.7 - 0.0 - - - - - - -
25/02:30am 15.7 ESE 7 11 1015.7 - 0.0 - - - - - - -
25/02:00am 15.8 SE 8 9 1015.7 - 0.0 - - - - - - -
25/01:30am 15.8 SSE 8 10 1016.1 - 0.0 - - - - - - -
25/01:00am 15.7 SSE 8 9 1016.5 - 0.0 - - - - - - -
25/12:30am 15.9 S 9 12 1016.5 - 0.0 - - - - - - -
25/12:00am 16.0 S 10 12 1016.5 - 0.0 - - - - - - -
 
Date/Time
CDT
Temp

°C
Wind Pressure Rain
since 9am
mm
Weather Cloud Vis
km
Sea
Height
m
Swell
Dir
 
Speed
knots
Gust
knots
hPa Trend Height
m
Period
s
Dir
24/11:30pm 16.0 S 9 13 1016.8 - 0.0 - - - - - - -
24/11:00pm 16.1 S 9 14 1016.8 - 0.0 - - - - - - -
24/10:30pm 16.2 S 9 13 1016.6 - 0.0 - - - - - - -
24/10:00pm 16.3 S 9 12 1016.6 - 0.0 - - - - - - -
24/09:30pm 16.5 S 10 11 1016.3 - 0.0 - - - - - - -
24/09:00pm 16.5 S 11 14 1015.9 - 0.0 - - - - - - -
24/08:30pm 16.8 S 12 16 1015.4 - 0.0 - - - - - - -
24/08:00pm 16.8 S 14 16 1015.2 - 0.0 - - - - - - -
24/07:30pm 17.1 SSW 13 15 1014.9 - 0.0 - - - - - - -
24/07:00pm 17.4 SSW 13 16 1014.4 - 0.0 - - - - - - -
24/06:30pm 18.3 SSW 14 16 1013.9 - 0.0 - - - - - - -
24/06:00pm 19.1 SSW 15 19 1013.9 - 0.0 - - - - - - -
24/05:30pm 19.5 SSW 12 16 1013.5 - 0.0 - - - - - - -
24/05:00pm 20.5 SSW 13 15 1013.3 - 0.0 - - - - - - -
24/04:30pm 21.1 S 12 16 1012.9 - 0.0 - - - - - - -
24/04:00pm 21.6 S 14 17 1012.9 - 0.0 - - - - - - -
24/03:30pm 23.0 SSE 9 10 1012.5 - 0.0 - - - - - - -
24/03:00pm 23.1 SSE 7 8 1012.7 - 0.0 - - - - - - -
24/02:30pm 22.9 SSE 8 9 1013.2 - 0.0 - - - - - - -
24/02:00pm 22.4 S 11 12 1013.4 - 0.0 - - - - - - -
24/01:30pm 22.8 S 9 11 1013.4 - 0.0 - - - - - - -
24/01:00pm 23.2 SSE 8 9 1013.5 - 0.0 - - - - - - -
24/12:30pm 21.6 SSE 8 9 1013.6 - 0.0 - - - - - - -
24/12:00pm 21.6 SSE 7 8 1014.1 - 0.0 - - - - - - -
24/11:30am 21.8 S 7 8 1014.2 - 0.0 - - - - - - -
24/11:00am 20.2 S 7 8 1014.5 - 0.0 - - - - - - -
24/10:30am 20.1 S 5 6 1014.5 - 0.0 - - - - - - -
24/10:00am 19.4 N 3 5 1014.5 - 0.0 - - - - - - -
24/09:30am 17.5 N 5 6 1014.3 - 0.0 - - - - - - -
24/09:00am 15.2 N 3 4 1014.3 - 0.0 Fine Mostly cloudy 12 - - - -
24/08:30am 13.7 E 5 6 1014.0 - 0.0 - - - - - - -
24/08:00am 13.4 E 3 5 1014.1 - 0.0 - - - - - - -
24/07:30am 12.9 SSE 3 5 1013.9 - 0.0 - - - - - - -
24/07:00am 11.8 CALM 0 0 1013.4 - 0.0 - - - - - - -
24/06:30am 11.8 N 4 6 1012.7 - 0.0 - - - - - - -
24/06:00am 12.0 N 5 7 1012.4 - 0.0 - - - - - - -
24/05:30am 11.9 NNE 6 8 1011.7 - 0.0 - - - - - - -
24/05:00am 11.8 N 6 9 1012.1 - 0.0 - - - - - - -
24/04:30am 11.9 N 6 8 1012.1 - 0.0 - - - - - - -
24/04:00am 12.8 NNE 1 3 1012.1 - 0.0 - - - - - - -
24/03:30am 12.8 NNW 1 4 1012.6 - 0.0 - - - - - - -
24/03:00am 12.9 NNW 5 6 1013.1 - 0.0 - - - - - - -
24/02:30am 12.9 NW 4 5 1013.0 - 0.0 - - - - - - -
24/02:00am 13.6 W 4 5 1013.5 - 0.0 - - - - - - -
24/01:30am 13.5 SW 5 7 1014.1 - 0.0 - - - - - - -
24/01:00am 13.7 SW 8 10 1014.6 - 0.0 - - - - - - -
24/12:30am 13.8 WSW 7 10 1015.0 - 0.0 - - - - - - -
24/12:00am 13.9 WSW 8 10 1015.0 - 0.0 - - - - - - -
 
Date/Time
CDT
Temp

°C
Wind Pressure Rain
since 9am
mm
Weather Cloud Vis
km
Sea
Height
m
Swell
Dir
 
Speed
knots
Gust
knots
hPa Trend Height
m
Period
s
Dir
23/11:30pm 13.8 SW 8 10 1015.2 - 0.0 - - - - - - -
23/11:00pm 13.8 SW 8 10 1015.4 - 0.0 - - - - - - -
23/10:30pm 13.6 SW 7 9 1015.2 - 0.0 - - - - - - -
23/10:00pm 13.6 SW 9 10 1015.6 - 0.0 - - - - - - -
23/09:30pm 13.7 SW 8 10 1015.7 - 0.0 - - - - - - -
23/09:00pm 13.9 SW 10 11 1015.7 - 0.0 - - - - - - -
23/08:30pm 13.9 SW 9 11 1015.5 - 0.0 - - - - - - -
23/08:00pm 14.0 SW 9 11 1015.4 - 0.0 - - - - - - -
23/07:30pm 14.5 SW 10 13 1015.3 - 0.0 - - - - - - -
23/07:00pm 15.0 SSW 11 15 1015.1 - 0.0 - - - - - - -
23/06:30pm 15.4 SW 11 14 1015.2 - 0.0 - - - - - - -
23/06:00pm 15.2 SSW 12 14 1015.0 - 0.0 - - - - - - -
23/05:30pm 15.7 SSW 11 13 1015.0 - 0.0 - - - - - - -
23/05:00pm 16.2 SSW 12 15 1015.0 - 0.0 - - - - - - -
23/04:30pm 16.3 SSW 12 16 1014.9 - 0.0 - - - - - - -
23/04:00pm 16.7 SSW 11 14 1015.1 - 0.0 - - - - - - -
23/03:30pm 16.6 SSW 11 15 1015.2 - 0.0 - - - - - - -
23/03:00pm 17.5 SSW 11 14 1015.6 - 0.0 - - - - - - -
23/02:30pm 16.5 SSW 10 13 1016.0 - 0.0 - - - - - - -
23/02:00pm 17.3 S 10 13 1016.2 - 0.0 - - - - - - -
23/01:30pm 17.2 SSW 8 13 1016.5 - 0.0 - - - - - - -
23/01:00pm 17.1 S 9 12 1016.8 - 0.0 - - - - - - -
23/12:30pm 16.8 S 8 11 1017.0 - 0.0 - - - - - - -
23/12:00pm 16.2 S 8 10 1017.6 - 0.0 - - - - - - -
23/11:30am 15.9 S 9 11 1018.0 - 0.0 - - - - - - -
23/11:00am 15.4 S 8 11 1018.1 - 0.0 - - - - - - -
23/10:30am 15.1 S 9 12 1018.4 - 0.0 - - - - - - -
23/10:00am 14.7 S 10 13 1018.5 - 0.0 - - - - - - -
23/09:30am 14.7 S 10 13 1018.8 - 0.0 - - - - - - -
23/09:00am 14.4 S 10 13 1018.7 - 0.0 Haze Cloudy 4 - - - -
23/08:30am 14.2 S 11 14 1018.7 - 0.0 - - - - - - -
23/08:00am 14.1 S 12 16 1018.9 - 0.0 - - - - - - -
23/07:30am 14.3 S 13 18 1018.8 - 0.0 - - - - - - -
23/07:00am 14.4 SSE 15 18 1018.6 - 0.0 - - - - - - -
23/06:30am 14.3 S 15 18 1018.6 - 0.0 - - - - - - -
23/06:00am 14.6 S 16 19 1018.6 - 0.0 - - - - - - -
23/05:30am 14.6 S 15 19 1018.5 - 0.0 - - - - - - -
23/05:00am 14.7 SSE 16 20 1018.1 - 0.0 - - - - - - -
23/04:30am 14.8 S 18 21 1018.3 - 0.0 - - - - - - -
23/04:00am 15.0 S 17 20 1018.6 - 0.0 - - - - - - -
23/03:30am 14.9 S 16 19 1018.5 - 0.0 - - - - - - -
23/03:00am 14.9 S 16 21 1018.9 - 0.0 - - - - - - -
23/02:30am 15.0 S 16 19 1018.9 - 0.0 - - - - - - -
23/02:00am 15.0 S 15 19 1019.1 - 0.0 - - - - - - -
23/01:30am 14.9 S 15 18 1019.3 - 0.0 - - - - - - -
23/01:00am 14.9 S 15 19 1019.7 - 0.0 - - - - - - -
23/12:30am 15.0 S 14 19 1019.8 - 0.0 - - - - - - -
23/12:00am 15.0 S 13 19 1020.0 - 0.0 - - - - - - -
 
Date/Time
CDT
Temp

°C
Wind Pressure Rain
since 9am
mm
Weather Cloud Vis
km
Sea
Height
m
Swell
Dir
 
Speed
knots
Gust
knots
hPa Trend Height
m
Period
s
Dir
22/11:30pm 14.8 S 15 18 1020.3 - 0.0 - - - - - - -
22/11:00pm 15.0 S 14 18 1020.6 - 0.0 - - - - - - -
22/10:30pm 14.9 S 15 19 1020.8 - 0.0 - - - - - - -
22/10:00pm 14.8 S 17 20 1020.9 - 0.0 - - - - - - -
22/09:30pm 15.0 S 17 21 1020.6 - 0.0 - - - - - - -
22/09:00pm 15.0 SSW 17 21 1020.3 - 0.0 - - - - - - -
22/08:30pm 15.0 S 18 23 1020.0 - 0.0 - - - - - - -
22/08:00pm 15.1 SSW 18 22 1019.3 - 0.0 - - - - - - -
22/07:30pm 15.3 S 18 22 1019.1 - 0.0 - - - - - - -
22/07:00pm 15.5 SSW 18 22 1018.9 - 0.0 - - - - - - -
22/06:30pm 15.8 S 19 22 1018.7 - 0.0 - - - - - - -
22/06:00pm 15.9 SSW 19 23 1018.6 - 0.0 - - - - - - -
22/05:30pm 16.1 SSW 18 23 1018.6 - 0.0 - - - - - - -
22/05:00pm 16.1 SSW 19 23 1018.5 - 0.0 - - - - - - -
22/04:30pm 16.3 SSW 20 24 1018.5 - 0.0 - - - - - - -
22/04:00pm 16.8 SSW 20 24 1018.6 - 0.0 - - - - - - -
22/03:30pm 17.5 SSW 21 25 1018.5 - 0.0 - - - - - - -
22/03:00pm 17.6 SSW 21 25 1018.5 - 0.0 - - - - - - -
22/02:30pm 18.2 SSW 22 26 1018.4 - 0.0 - - - - - - -
22/02:00pm 18.4 SW 23 27 1018.6 - 0.0 - - - - - - -
22/01:30pm 18.7 SW 25 29 1018.3 - 0.0 - - - - - - -
22/01:00pm 19.1 SW 24 28 1018.2 - 0.0 - - - - - - -
22/12:30pm 19.3 SW 23 28 1018.4 - 0.0 - - - - - - -
22/12:00pm 19.5 SW 22 28 1018.3 - 0.0 - - - - - - -
22/11:30am 19.0 SW 19 24 1018.0 - 0.0 - - - - - - -
22/11:00am 19.2 SW 17 23 1017.9 - 0.0 - - - - - - -
22/10:30am 19.2 SW 17 21 1018.1 - 0.0 - - - - - - -
22/10:00am 19.1 SW 16 22 1018.1 - 0.0 - - - - - - -
22/09:30am 18.6 SW 17 23 1018.1 - 0.0 - - - - - - -
22/09:00am 18.7 SW 16 21 1017.9 - 0.0 Haze Mostly clear 6 - - - -
22/08:30am 18.5 SW 16 21 1017.5 - 0.0 - - - - - - -
22/08:00am 18.7 WSW 13 18 1017.2 - 0.0 - - - - - - -
22/07:30am 18.0 WSW 13 17 1016.8 - 0.0 - - - - - - -
22/07:00am 17.4 SW 14 18 1016.5 - 0.0 - - - - - - -
22/06:30am 18.2 SSW 13 16 1016.0 - 0.0 - - - - - - -
22/06:00am 17.9 NNW 6 7 1015.1 - 0.0 - - - - - - -
22/05:30am 17.9 NNW 7 8 1014.9 - 0.0 - - - - - - -
22/05:00am 17.7 NNW 5 6 1014.8 - 0.0 - - - - - - -
22/04:30am 18.1 WSW 6 7 1015.1 - 0.0 - - - - - - -
22/04:00am 17.9 WNW 6 7 1015.1 - 0.0 - - - - - - -
22/03:30am 17.7 WNW 5 6 1015.2 - 0.0 - - - - - - -

Other Formats:

Comma delimited format used in spreadsheet applications
http://www.bom.gov.au/fwo/IDS60701/IDS60701.94677.axf

JavaScript Object Notation format (JSON) in row-major order
http://www.bom.gov.au/fwo/IDS60701/IDS60701.94677.json